Time;durP1;ratioP1;P1;durP2;ratioP2;P2;SDS_P1;SDS_P2;PMS_P1;PMS_P2;Temp;Humidity;BMP_temperature;BMP_pressure;BME280_temperature;BME280_humidity;BME280_pressure;Samples;Min_cycle;Max_cycle;Signal;HPM_P1;HPM_P2
2023/09/03 00:00:32;;;;;;;8.25;4.47;;;;;;;;;;2091296;28;20141;-64
2023/09/03 00:01:32;;;;;;;9.43;5.25;;;;;;;;;;2091270;28;20033;-64
2023/09/03 00:02:33;;;;;;;7.15;4.68;;;;;;;;;;2091193;28;20148;-63
2023/09/03 00:03:34;;;;;;;8.45;5.47;;;;;;;;;;2091598;28;20044;-64
2023/09/03 00:04:34;;;;;;;8.20;4.93;;;;;;;;;;2091258;28;20075;-64
2023/09/03 00:05:35;;;;;;;6.45;4.60;;;;;;;;;;2091490;28;20400;-63
2023/09/03 00:06:36;;;;;;;6.65;4.80;;;;;;;;;;2091570;28;20045;-63
2023/09/03 00:07:37;;;;;;;9.38;5.00;;;;;;;;;;2091136;28;20037;-63
2023/09/03 00:08:38;;;;;;;11.25;5.03;;;;;;;;;;2091139;28;20048;-65
2023/09/03 00:09:38;;;;;;;7.32;4.88;;;;;;;;;;2091096;28;20045;-64
2023/09/03 00:10:39;;;;;;;10.93;6.03;;;;;;;;;;2091134;28;20032;-64
2023/09/03 00:11:40;;;;;;;7.80;5.13;;;;;;;;;;2091194;28;20046;-64
2023/09/03 00:12:40;;;;;;;7.43;5.10;;;;;;;;;;2091181;28;20392;-64
2023/09/03 00:13:42;;;;;;;6.65;4.70;;;;;;;;;;2091188;28;20060;-64
2023/09/03 00:14:43;;;;;;;8.65;5.05;;;;;;;;;;2091035;28;20029;-64
2023/09/03 00:15:44;;;;;;;8.88;5.07;;;;;;;;;;2090898;28;20068;-63
2023/09/03 00:16:45;;;;;;;9.10;4.85;;;;;;;;;;2091061;28;20044;-63
2023/09/03 00:17:45;;;;;;;6.75;5.20;;;;;;;;;;2091035;28;20045;-63
2023/09/03 00:18:47;;;;;;;7.47;5.70;;;;;;;;;;2091355;28;20029;-63
2023/09/03 00:19:48;;;;;;;6.40;4.82;;;;;;;;;;2091025;28;20041;-63
2023/09/03 00:21:01;;;;;;;8.20;5.32;;;;;;;;;;2091078;28;20128;-64
2023/09/03 00:22:02;;;;;;;8.95;5.15;;;;;;;;;;2091182;28;20462;-65
2023/09/03 00:23:03;;;;;;;8.45;5.28;;;;;;;;;;2090785;28;20053;-63
2023/09/03 00:24:04;;;;;;;7.95;4.60;;;;;;;;;;2090210;28;20053;-64
2023/09/03 00:25:05;;;;;;;8.70;5.43;;;;;;;;;;2090691;28;20054;-62
2023/09/03 00:26:06;;;;;;;8.32;4.85;;;;;;;;;;2091068;28;20045;-64
2023/09/03 00:27:07;;;;;;;7.35;5.80;;;;;;;;;;2091514;28;20044;-64
2023/09/03 00:28:07;;;;;;;6.72;4.80;;;;;;;;;;2091031;28;20508;-63
2023/09/03 00:29:08;;;;;;;7.88;5.00;;;;;;;;;;2091222;28;20033;-63
2023/09/03 00:30:09;;;;;;;7.63;4.70;;;;;;;;;;2090668;28;20029;-64
2023/09/03 00:31:10;;;;;;;7.53;5.30;;;;;;;;;;2090496;28;20083;-64
2023/09/03 00:32:11;;;;;;;8.85;5.10;;;;;;;;;;2090716;28;20045;-63
2023/09/03 00:33:11;;;;;;;6.60;5.13;;;;;;;;;;2090915;28;20032;-63
2023/09/03 00:34:12;;;;;;;8.60;5.18;;;;;;;;;;2090219;28;20049;-63
2023/09/03 00:35:13;;;;;;;7.60;5.10;;;;;;;;;;2090722;28;20037;-64
2023/09/03 00:36:14;;;;;;;6.82;5.20;;;;;;;;;;2090883;28;20108;-64
2023/09/03 00:37:14;;;;;;;7.55;4.85;;;;;;;;;;2081971;28;20045;-63
2023/09/03 00:38:15;;;;;;;6.88;4.60;;;;;;;;;;2081840;28;20481;-64
2023/09/03 00:39:16;;;;;;;11.00;5.80;;;;;;;;;;2091505;28;20485;-64
2023/09/03 00:40:17;;;;;;;7.22;5.22;;;;;;;;;;2090909;28;20025;-64
2023/09/03 00:41:18;;;;;;;8.18;5.03;;;;;;;;;;2090513;28;20045;-63
2023/09/03 00:42:18;;;;;;;7.28;5.32;;;;;;;;;;2090680;28;20044;-63
2023/09/03 00:43:19;;;;;;;7.35;5.70;;;;;;;;;;2090384;28;20037;-62
2023/09/03 00:44:20;;;;;;;9.73;6.05;;;;;;;;;;2090521;28;20033;-62
2023/09/03 00:45:21;;;;;;;14.20;6.07;;;;;;;;;;2090604;28;20041;-64
2023/09/03 00:46:22;;;;;;;8.68;5.78;;;;;;;;;;2090881;28;20033;-64
2023/09/03 00:47:22;;;;;;;10.38;6.15;;;;;;;;;;2090906;28;20068;-65
2023/09/03 00:48:26;;;;;;;12.85;6.28;;;;;;;;;;2090361;28;20044;-64
2023/09/03 00:49:27;;;;;;;10.32;6.38;;;;;;;;;;2090732;28;20037;-64
2023/09/03 00:50:28;;;;;;;8.00;6.03;;;;;;;;;;2090269;28;20037;-64
2023/09/03 00:51:28;;;;;;;8.95;5.88;;;;;;;;;;2081846;28;20025;-64
2023/09/03 00:52:29;;;;;;;8.07;6.30;;;;;;;;;;2090352;28;20045;-64
2023/09/03 00:53:30;;;;;;;7.22;5.40;;;;;;;;;;2090862;28;20068;-64
2023/09/03 00:54:31;;;;;;;8.82;5.32;;;;;;;;;;2090288;28;20036;-63
2023/09/03 00:55:32;;;;;;;8.75;5.88;;;;;;;;;;2089664;28;20398;-63
2023/09/03 00:56:33;;;;;;;7.65;5.78;;;;;;;;;;2090860;28;20055;-64
2023/09/03 00:57:33;;;;;;;8.90;5.45;;;;;;;;;;2090183;28;20040;-64
2023/09/03 00:58:35;;;;;;;8.18;5.28;;;;;;;;;;2081816;28;20046;-64
2023/09/03 00:59:35;;;;;;;11.25;5.72;;;;;;;;;;2090400;28;20036;-64
2023/09/03 01:00:36;;;;;;;11.32;6.38;;;;;;;;;;2090395;28;20060;-64
2023/09/03 01:01:37;;;;;;;10.15;5.53;;;;;;;;;;2090795;28;20477;-64
2023/09/03 01:02:38;;;;;;;7.35;5.60;;;;;;;;;;2090705;28;20108;-63
2023/09/03 01:03:38;;;;;;;7.90;5.05;;;;;;;;;;2089884;28;20061;-64
2023/09/03 01:04:39;;;;;;;7.47;5.72;;;;;;;;;;2089824;28;20041;-64
2023/09/03 01:05:40;;;;;;;7.85;5.20;;;;;;;;;;2090100;28;20039;-64
2023/09/03 01:06:41;;;;;;;8.65;5.60;;;;;;;;;;2090703;28;20044;-64
2023/09/03 01:07:42;;;;;;;10.35;5.50;;;;;;;;;;2090680;28;20503;-64
2023/09/03 01:08:42;;;;;;;9.52;6.15;;;;;;;;;;2090670;28;20038;-64
2023/09/03 01:09:43;;;;;;;7.30;5.50;;;;;;;;;;2082041;28;20037;-63
2023/09/03 01:10:59;;;;;;;7.22;5.35;;;;;;;;;;2082178;28;20064;-64
2023/09/03 01:12:28;;;;;;;9.32;5.88;;;;;;;;;;2090388;28;20040;-64
2023/09/03 01:13:44;;;;;;;7.85;5.25;;;;;;;;;;2081740;28;20056;-64
2023/09/03 01:14:50;;;;;;;9.90;4.97;;;;;;;;;;2089910;28;20037;-64
2023/09/03 01:15:51;;;;;;;8.65;5.95;;;;;;;;;;2090083;28;20032;-63
2023/09/03 01:17:12;;;;;;;7.00;5.20;;;;;;;;;;2089996;28;20044;-63
2023/09/03 01:18:17;;;;;;;6.97;5.22;;;;;;;;;;2079719;28;20039;-62
2023/09/03 01:19:28;;;;;;;8.25;5.22;;;;;;;;;;2089989;28;20040;-64
2023/09/03 01:20:31;;;;;;;7.05;5.55;;;;;;;;;;2092730;28;20048;-64
2023/09/03 01:21:48;;;;;;;8.70;5.68;;;;;;;;;;2082217;28;20490;-65
2023/09/03 01:23:03;;;;;;;6.68;5.43;;;;;;;;;;2083801;28;20041;-63
2023/09/03 01:24:22;;;;;;;10.05;5.30;;;;;;;;;;2083749;28;20049;-64
2023/09/03 01:25:33;;;;;;;7.95;5.85;;;;;;;;;;2090102;28;20043;-63
2023/09/03 01:27:00;;;;;;;7.85;5.72;;;;;;;;;;2090046;28;20064;-63
2023/09/03 01:28:21;;;;;;;8.80;5.45;;;;;;;;;;2089233;28;20032;-63
2023/09/03 01:29:22;;;;;;;8.27;5.28;;;;;;;;;;2090210;28;20053;-64
2023/09/03 01:30:22;;;;;;;8.73;6.15;;;;;;;;;;2089576;28;20049;-65
2023/09/03 01:31:23;;;;;;;12.30;6.38;;;;;;;;;;2090029;28;20071;-65
2023/09/03 01:32:24;;;;;;;8.98;5.70;;;;;;;;;;2081597;28;20477;-64
2023/09/03 01:33:25;;;;;;;8.23;6.07;;;;;;;;;;2089293;28;20045;-65
2023/09/03 01:34:26;;;;;;;7.40;5.78;;;;;;;;;;2089674;28;20073;-64
2023/09/03 01:35:26;;;;;;;8.45;5.78;;;;;;;;;;2081603;28;20041;-64
2023/09/03 01:36:30;;;;;;;6.68;5.80;;;;;;;;;;2089840;28;20056;-63
2023/09/03 01:37:32;;;;;;;6.93;5.45;;;;;;;;;;2089974;28;20033;-64
2023/09/03 01:38:33;;;;;;;9.65;5.35;;;;;;;;;;2073236;28;20045;-63
2023/09/03 01:39:33;;;;;;;6.95;5.47;;;;;;;;;;2081811;28;20091;-64
2023/09/03 01:40:34;;;;;;;7.55;5.28;;;;;;;;;;2089301;28;20057;-64
2023/09/03 01:41:36;;;;;;;7.88;5.43;;;;;;;;;;2089859;28;20064;-64
2023/09/03 01:42:36;;;;;;;7.85;5.28;;;;;;;;;;2090113;28;20060;-63
2023/09/03 01:43:37;;;;;;;8.88;5.93;;;;;;;;;;2091025;28;20045;-64
2023/09/03 01:44:39;;;;;;;8.63;5.53;;;;;;;;;;2090120;28;20037;-64
2023/09/03 01:45:49;;;;;;;8.20;5.63;;;;;;;;;;2090461;28;20044;-64
2023/09/03 01:46:50;;;;;;;9.20;6.07;;;;;;;;;;2090002;28;20032;-63
2023/09/03 01:47:53;;;;;;;9.05;6.35;;;;;;;;;;2089847;28;20052;-62
2023/09/03 01:49:02;;;;;;;10.10;6.25;;;;;;;;;;2090105;28;20040;-63
2023/09/03 01:50:11;;;;;;;7.68;5.65;;;;;;;;;;2089671;28;20045;-63
2023/09/03 01:51:20;;;;;;;10.68;6.78;;;;;;;;;;2074451;28;20073;-63
2023/09/03 01:52:37;;;;;;;8.73;5.72;;;;;;;;;;2075698;28;20053;-63
2023/09/03 01:53:40;;;;;;;9.85;6.38;;;;;;;;;;2083693;28;20045;-64
2023/09/03 01:54:45;;;;;;;9.93;5.97;;;;;;;;;;2073774;28;20029;-63
2023/09/03 01:55:49;;;;;;;7.65;6.00;;;;;;;;;;2082103;28;20033;-64
2023/09/03 01:57:01;;;;;;;7.90;6.07;;;;;;;;;;2080910;28;20040;-63
2023/09/03 01:58:03;;;;;;;6.57;5.53;;;;;;;;;;2076866;28;20038;-63
2023/09/03 01:59:06;;;;;;;8.05;5.93;;;;;;;;;;2088993;28;20045;-64
2023/09/03 02:00:07;;;;;;;8.60;6.20;;;;;;;;;;2089434;28;20037;-65
2023/09/03 02:01:14;;;;;;;10.05;5.90;;;;;;;;;;2089892;28;20041;-63
2023/09/03 02:02:14;;;;;;;8.43;5.78;;;;;;;;;;2090277;28;20080;-63
2023/09/03 02:03:15;;;;;;;8.75;6.45;;;;;;;;;;2081705;28;20513;-64
2023/09/03 02:04:16;;;;;;;7.32;5.80;;;;;;;;;;2081742;28;20041;-64
2023/09/03 02:05:17;;;;;;;8.95;6.10;;;;;;;;;;2081403;28;20038;-63
2023/09/03 02:06:18;;;;;;;8.52;6.03;;;;;;;;;;2072559;28;20042;-64
2023/09/03 02:07:19;;;;;;;9.75;6.22;;;;;;;;;;2089018;28;20053;-65
2023/09/03 02:08:19;;;;;;;9.40;6.30;;;;;;;;;;2089797;28;20043;-64
2023/09/03 02:09:20;;;;;;;10.57;6.25;;;;;;;;;;2081425;28;20041;-64
2023/09/03 02:10:21;;;;;;;8.52;6.57;;;;;;;;;;2081364;28;20433;-64
2023/09/03 02:11:21;;;;;;;7.28;5.63;;;;;;;;;;2089605;28;20067;-64
2023/09/03 02:12:25;;;;;;;10.57;5.95;;;;;;;;;;2098056;28;20040;-64
2023/09/03 02:13:26;;;;;;;6.97;5.60;;;;;;;;;;2090006;28;20081;-65
2023/09/03 02:14:26;;;;;;;7.25;5.68;;;;;;;;;;2089959;28;20063;-65
2023/09/03 02:15:27;;;;;;;8.43;5.80;;;;;;;;;;2090263;28;20477;-65
2023/09/03 02:16:28;;;;;;;8.70;5.72;;;;;;;;;;2090033;28;20041;-64
2023/09/03 02:17:30;;;;;;;7.78;4.85;;;;;;;;;;2089310;28;20055;-64
2023/09/03 02:18:30;;;;;;;8.30;5.68;;;;;;;;;;2089577;28;20048;-65
2023/09/03 02:19:31;;;;;;;7.20;5.70;;;;;;;;;;2089906;28;20045;-65
2023/09/03 02:20:32;;;;;;;7.15;5.45;;;;;;;;;;2081331;28;20452;-63
2023/09/03 02:21:33;;;;;;;8.23;6.15;;;;;;;;;;2089128;28;20128;-64
2023/09/03 02:22:34;;;;;;;8.55;6.20;;;;;;;;;;2090215;28;20048;-64
2023/09/03 02:23:35;;;;;;;8.20;5.63;;;;;;;;;;2089307;28;20091;-64
2023/09/03 02:24:35;;;;;;;7.40;5.60;;;;;;;;;;2089509;28;20064;-64
2023/09/03 02:25:36;;;;;;;8.15;6.07;;;;;;;;;;2089891;28;20476;-64
2023/09/03 02:26:41;;;;;;;9.38;6.30;;;;;;;;;;2090260;28;20029;-64
2023/09/03 02:27:42;;;;;;;7.03;5.25;;;;;;;;;;2090377;28;20049;-64
2023/09/03 02:28:43;;;;;;;7.05;5.63;;;;;;;;;;2081615;28;20041;-64
2023/09/03 02:29:44;;;;;;;7.90;5.55;;;;;;;;;;2081919;28;20040;-64
2023/09/03 02:30:45;;;;;;;7.80;5.45;;;;;;;;;;2089720;28;20057;-64
2023/09/03 02:31:46;;;;;;;8.60;5.47;;;;;;;;;;2081330;28;20041;-64
2023/09/03 02:32:46;;;;;;;6.75;5.07;;;;;;;;;;2089388;28;20061;-64
2023/09/03 02:33:47;;;;;;;7.38;5.75;;;;;;;;;;2089571;28;20033;-62
2023/09/03 02:34:48;;;;;;;7.47;5.25;;;;;;;;;;2081260;28;20037;-64
2023/09/03 02:35:50;;;;;;;8.38;5.10;;;;;;;;;;2081413;28;20056;-64
2023/09/03 02:36:51;;;;;;;6.57;5.03;;;;;;;;;;2081545;28;20044;-63
2023/09/03 02:37:52;;;;;;;8.80;5.25;;;;;;;;;;2081307;28;20036;-64
2023/09/03 02:39:00;;;;;;;9.18;5.55;;;;;;;;;;2081270;28;20069;-65
2023/09/03 02:40:01;;;;;;;6.85;5.18;;;;;;;;;;2081770;28;20048;-64
2023/09/03 02:41:01;;;;;;;7.60;4.32;;;;;;;;;;2081633;28;20115;-64
2023/09/03 02:42:02;;;;;;;8.65;5.13;;;;;;;;;;2089645;28;20457;-64
2023/09/03 02:43:04;;;;;;;8.95;5.68;;;;;;;;;;2090015;28;20090;-64
2023/09/03 02:44:07;;;;;;;9.00;5.20;;;;;;;;;;2089348;28;20036;-64
2023/09/03 02:45:07;;;;;;;6.78;5.38;;;;;;;;;;2089503;28;20051;-64
2023/09/03 02:46:08;;;;;;;7.40;5.20;;;;;;;;;;2090057;28;20075;-62
2023/09/03 02:47:09;;;;;;;8.48;5.63;;;;;;;;;;2090213;28;20484;-64
2023/09/03 02:48:10;;;;;;;7.38;5.90;;;;;;;;;;2089835;28;20078;-64
2023/09/03 02:49:10;;;;;;;9.35;5.45;;;;;;;;;;2089223;28;20542;-64
2023/09/03 02:50:12;;;;;;;8.43;5.82;;;;;;;;;;2088975;28;20485;-64
2023/09/03 02:51:12;;;;;;;13.00;5.78;;;;;;;;;;2089432;28;20033;-64
2023/09/03 02:52:14;;;;;;;9.63;5.70;;;;;;;;;;2088826;28;20049;-65
2023/09/03 02:53:15;;;;;;;8.52;5.40;;;;;;;;;;2089775;28;20041;-64
2023/09/03 02:54:16;;;;;;;8.68;6.25;;;;;;;;;;2090094;28;20086;-64
2023/09/03 02:55:16;;;;;;;12.50;6.38;;;;;;;;;;2090032;28;20157;-64
2023/09/03 02:56:17;;;;;;;10.18;6.10;;;;;;;;;;2090076;28;20041;-63
2023/09/03 02:57:18;;;;;;;8.63;6.60;;;;;;;;;;2091583;28;20400;-63
2023/09/03 02:58:19;;;;;;;10.32;6.38;;;;;;;;;;2091566;28;20546;-63
2023/09/03 02:59:19;;;;;;;9.73;5.65;;;;;;;;;;2092059;28;20032;-63
2023/09/03 03:00:20;;;;;;;10.60;6.40;;;;;;;;;;2090239;28;20456;-63
2023/09/03 03:01:21;;;;;;;7.32;5.68;;;;;;;;;;2082546;28;20097;-63
2023/09/03 03:02:22;;;;;;;9.18;6.20;;;;;;;;;;2082651;28;20045;-63
2023/09/03 03:03:22;;;;;;;10.30;5.70;;;;;;;;;;2090650;28;20040;-63
2023/09/03 03:04:23;;;;;;;9.40;5.72;;;;;;;;;;2091224;28;20476;-64
2023/09/03 03:05:24;;;;;;;8.45;5.72;;;;;;;;;;2091092;28;20071;-63
2023/09/03 03:06:25;;;;;;;7.07;5.47;;;;;;;;;;2091121;28;20049;-63
2023/09/03 03:07:26;;;;;;;8.75;5.38;;;;;;;;;;2083181;28;20040;-63
2023/09/03 03:08:27;;;;;;;8.35;5.45;;;;;;;;;;2074738;28;20046;-63
2023/09/03 03:09:27;;;;;;;9.05;6.20;;;;;;;;;;2090735;28;20045;-63
2023/09/03 03:10:28;;;;;;;11.57;5.63;;;;;;;;;;2091832;28;20040;-63
2023/09/03 03:11:29;;;;;;;8.63;5.40;;;;;;;;;;2090957;28;20463;-62
2023/09/03 03:12:32;;;;;;;6.78;5.10;;;;;;;;;;2082979;28;20048;-63
2023/09/03 03:13:33;;;;;;;10.00;5.43;;;;;;;;;;2091012;28;20417;-63
2023/09/03 03:14:34;;;;;;;6.10;5.00;;;;;;;;;;2091462;28;20033;-63
2023/09/03 03:15:35;;;;;;;7.97;5.88;;;;;;;;;;2091007;28;20040;-63
2023/09/03 03:16:37;;;;;;;9.00;6.25;;;;;;;;;;2083045;28;20433;-63
2023/09/03 03:17:44;;;;;;;8.40;6.53;;;;;;;;;;2083623;28;20025;-63
2023/09/03 03:18:47;;;;;;;8.25;6.63;;;;;;;;;;2090972;28;20037;-64
2023/09/03 03:19:52;;;;;;;8.05;6.57;;;;;;;;;;2090961;28;20112;-63
2023/09/03 03:21:02;;;;;;;9.73;7.63;;;;;;;;;;2090842;28;20507;-63
2023/09/03 03:22:03;;;;;;;9.90;6.60;;;;;;;;;;2090712;28;20049;-63
2023/09/03 03:23:04;;;;;;;9.90;6.55;;;;;;;;;;2090717;28;20033;-64
2023/09/03 03:24:05;;;;;;;11.13;7.90;;;;;;;;;;2090573;28;20500;-63
2023/09/03 03:25:09;;;;;;;8.40;7.40;;;;;;;;;;2083045;28;20049;-64
2023/09/03 03:26:09;;;;;;;10.05;7.72;;;;;;;;;;2090701;28;20524;-64
2023/09/03 03:27:10;;;;;;;13.20;7.93;;;;;;;;;;2091463;28;20032;-64
2023/09/03 03:28:11;;;;;;;14.65;8.65;;;;;;;;;;2091037;28;20492;-64
2023/09/03 03:29:11;;;;;;;9.52;7.40;;;;;;;;;;2090273;28;20049;-64
2023/09/03 03:30:23;;;;;;;10.90;7.85;;;;;;;;;;2090563;28;20040;-64
2023/09/03 03:31:24;;;;;;;10.48;7.32;;;;;;;;;;2082455;28;20497;-64
2023/09/03 03:32:27;;;;;;;12.57;7.35;;;;;;;;;;2082787;28;20052;-64
2023/09/03 03:33:30;;;;;;;10.10;7.60;;;;;;;;;;2090848;28;20378;-64
2023/09/03 03:34:31;;;;;;;8.95;6.65;;;;;;;;;;2091551;28;20066;-64
2023/09/03 03:35:35;;;;;;;9.88;7.10;;;;;;;;;;2090994;28;20452;-64
2023/09/03 03:36:35;;;;;;;7.65;6.32;;;;;;;;;;2082734;28;20048;-64
2023/09/03 03:37:36;;;;;;;12.52;7.10;;;;;;;;;;2090742;28;20040;-64
2023/09/03 03:38:37;;;;;;;9.10;6.18;;;;;;;;;;2091415;28;20049;-64
2023/09/03 03:39:38;;;;;;;7.22;6.10;;;;;;;;;;2091728;28;20048;-64
2023/09/03 03:40:39;;;;;;;10.77;7.68;;;;;;;;;;2090735;28;20041;-64
2023/09/03 03:41:41;;;;;;;10.63;7.18;;;;;;;;;;2082895;28;20045;-64
2023/09/03 03:42:47;;;;;;;12.13;7.50;;;;;;;;;;2082905;28;20053;-64
2023/09/03 03:43:48;;;;;;;8.63;6.97;;;;;;;;;;2090700;28;20052;-64
2023/09/03 03:44:50;;;;;;;11.48;8.32;;;;;;;;;;2090970;28;20037;-64
2023/09/03 03:45:51;;;;;;;9.82;8.02;;;;;;;;;;2090450;28;20040;-64
2023/09/03 03:46:52;;;;;;;9.70;7.80;;;;;;;;;;2090674;28;20033;-63
2023/09/03 03:47:53;;;;;;;13.80;7.53;;;;;;;;;;2090847;28;20465;-64
2023/09/03 03:48:53;;;;;;;9.65;7.60;;;;;;;;;;2091274;28;20056;-64
2023/09/03 03:49:55;;;;;;;8.70;7.68;;;;;;;;;;2091284;28;20040;-64
2023/09/03 03:50:55;;;;;;;12.18;7.78;;;;;;;;;;2090252;28;20059;-64
2023/09/03 03:51:56;;;;;;;11.55;7.80;;;;;;;;;;2090649;28;20502;-64
2023/09/03 03:52:57;;;;;;;9.25;7.90;;;;;;;;;;2091565;28;20037;-64
2023/09/03 03:54:03;;;;;;;11.77;7.80;;;;;;;;;;2090981;28;20037;-65
2023/09/03 03:55:04;;;;;;;11.43;8.25;;;;;;;;;;2091326;28;20047;-64
2023/09/03 03:56:06;;;;;;;10.73;7.60;;;;;;;;;;2091317;28;20071;-64
2023/09/03 03:57:06;;;;;;;12.63;7.85;;;;;;;;;;2090342;28;20041;-64
2023/09/03 03:58:08;;;;;;;9.52;7.57;;;;;;;;;;2090660;28;20045;-64
2023/09/03 03:59:08;;;;;;;10.23;7.88;;;;;;;;;;2090340;28;20056;-65
2023/09/03 04:00:09;;;;;;;10.55;7.82;;;;;;;;;;2090124;28;20496;-64
2023/09/03 04:01:25;;;;;;;9.75;7.57;;;;;;;;;;2091340;28;20040;-63
2023/09/03 04:02:27;;;;;;;11.18;7.97;;;;;;;;;;2090708;28;20402;-64
2023/09/03 04:03:28;;;;;;;10.40;8.25;;;;;;;;;;2090590;28;20025;-64
2023/09/03 04:04:28;;;;;;;11.18;8.48;;;;;;;;;;2090477;28;20073;-64
2023/09/03 04:05:29;;;;;;;14.27;8.70;;;;;;;;;;2082298;28;20045;-64
2023/09/03 04:06:31;;;;;;;11.25;7.90;;;;;;;;;;2090645;28;20037;-64
2023/09/03 04:07:31;;;;;;;13.10;9.68;;;;;;;;;;2091156;28;20048;-64
2023/09/03 04:08:32;;;;;;;14.82;9.23;;;;;;;;;;2090186;28;20029;-64
2023/09/03 04:09:35;;;;;;;12.65;9.70;;;;;;;;;;2091272;28;20419;-64
2023/09/03 04:10:36;;;;;;;12.98;9.43;;;;;;;;;;2090920;28;20048;-64
2023/09/03 04:11:36;;;;;;;19.35;10.82;;;;;;;;;;2090565;28;20079;-64
2023/09/03 04:12:37;;;;;;;11.75;9.63;;;;;;;;;;2090555;28;20384;-65
2023/09/03 04:13:38;;;;;;;15.13;10.10;;;;;;;;;;2090827;28;20476;-64
2023/09/03 04:14:39;;;;;;;15.50;9.25;;;;;;;;;;2090193;28;20128;-64
2023/09/03 04:15:40;;;;;;;11.80;8.30;;;;;;;;;;2089871;28;20040;-64
2023/09/03 04:16:41;;;;;;;12.15;9.65;;;;;;;;;;2091429;28;20516;-64
2023/09/03 04:17:42;;;;;;;14.82;9.52;;;;;;;;;;2091090;28;20108;-64
2023/09/03 04:18:43;;;;;;;10.52;8.65;;;;;;;;;;2090529;28;20420;-64
2023/09/03 04:19:47;;;;;;;9.90;8.82;;;;;;;;;;2082276;28;20147;-64
2023/09/03 04:20:51;;;;;;;10.25;8.50;;;;;;;;;;2082582;28;20037;-64
2023/09/03 04:21:52;;;;;;;12.23;8.07;;;;;;;;;;2090285;28;20049;-64
2023/09/03 04:22:53;;;;;;;11.32;8.70;;;;;;;;;;2090128;28;20040;-64
2023/09/03 04:23:55;;;;;;;11.65;8.88;;;;;;;;;;2090255;28;20039;-64
2023/09/03 04:24:55;;;;;;;12.15;8.82;;;;;;;;;;2090407;28;20033;-64
2023/09/03 04:25:56;;;;;;;10.82;8.18;;;;;;;;;;2081972;28;20044;-64
2023/09/03 04:26:59;;;;;;;10.32;8.30;;;;;;;;;;2082240;28;20509;-64
2023/09/03 04:27:59;;;;;;;10.60;8.20;;;;;;;;;;2090420;28;20036;-64
2023/09/03 04:29:01;;;;;;;10.70;8.13;;;;;;;;;;2090702;28;20044;-64
2023/09/03 04:30:03;;;;;;;12.40;9.25;;;;;;;;;;2082136;28;20037;-64
2023/09/03 04:31:04;;;;;;;10.43;8.35;;;;;;;;;;2082206;28;20500;-64
2023/09/03 04:32:07;;;;;;;12.10;9.05;;;;;;;;;;2082662;28;20481;-64
2023/09/03 04:33:09;;;;;;;11.38;8.52;;;;;;;;;;2081535;28;20048;-64
2023/09/03 04:34:13;;;;;;;11.30;8.70;;;;;;;;;;2082243;28;20048;-64
2023/09/03 04:35:14;;;;;;;12.27;8.77;;;;;;;;;;2082615;28;20041;-65
2023/09/03 04:36:15;;;;;;;12.32;8.68;;;;;;;;;;2082469;28;20068;-64
2023/09/03 04:37:15;;;;;;;10.52;8.40;;;;;;;;;;2089972;28;20041;-64
2023/09/03 04:38:16;;;;;;;10.45;7.80;;;;;;;;;;2091341;28;20048;-64
2023/09/03 04:39:17;;;;;;;10.20;8.18;;;;;;;;;;2090921;28;20048;-64
2023/09/03 04:40:17;;;;;;;13.40;7.35;;;;;;;;;;2090046;28;20531;-64
2023/09/03 04:41:18;;;;;;;9.05;7.55;;;;;;;;;;2090616;28;20090;-64
2023/09/03 04:42:27;;;;;;;12.73;7.68;;;;;;;;;;2090107;28;20045;-64
2023/09/03 04:43:29;;;;;;;13.38;8.35;;;;;;;;;;2090229;28;20028;-64
2023/09/03 04:44:29;;;;;;;11.20;7.97;;;;;;;;;;2090325;28;20052;-64
2023/09/03 04:45:31;;;;;;;9.93;8.00;;;;;;;;;;2081752;28;20124;-64
2023/09/03 04:46:32;;;;;;;9.38;7.57;;;;;;;;;;2090133;28;20040;-64
2023/09/03 04:47:33;;;;;;;10.85;7.35;;;;;;;;;;2081990;28;20038;-64
2023/09/03 04:48:33;;;;;;;8.45;7.25;;;;;;;;;;2090346;28;20033;-64
2023/09/03 04:49:34;;;;;;;9.38;7.50;;;;;;;;;;2090186;28;20052;-64
2023/09/03 04:50:35;;;;;;;10.57;7.93;;;;;;;;;;2082400;28;20041;-64
2023/09/03 04:51:36;;;;;;;12.15;8.27;;;;;;;;;;2089590;28;20048;-64
2023/09/03 04:52:39;;;;;;;10.13;7.63;;;;;;;;;;2089870;28;20140;-64
2023/09/03 04:53:40;;;;;;;10.52;6.72;;;;;;;;;;2090464;28;20047;-64
2023/09/03 04:54:41;;;;;;;10.27;7.28;;;;;;;;;;2098197;28;20028;-64
2023/09/03 04:55:41;;;;;;;12.15;7.38;;;;;;;;;;2090741;28;20036;-64
2023/09/03 04:56:45;;;;;;;9.82;6.85;;;;;;;;;;2090502;28;20362;-64
2023/09/03 04:57:46;;;;;;;10.32;6.95;;;;;;;;;;2090206;28;20037;-64
2023/09/03 04:58:47;;;;;;;9.65;7.03;;;;;;;;;;2089733;28;20045;-64
2023/09/03 04:59:48;;;;;;;9.77;7.20;;;;;;;;;;2089825;28;20060;-64
2023/09/03 05:00:49;;;;;;;10.45;7.00;;;;;;;;;;2090503;28;20044;-64
2023/09/03 05:01:49;;;;;;;12.57;7.90;;;;;;;;;;2090111;28;20037;-64
2023/09/03 05:02:50;;;;;;;8.95;6.82;;;;;;;;;;2090137;28;20047;-64
2023/09/03 05:03:51;;;;;;;11.63;7.13;;;;;;;;;;2091043;28;20033;-64
2023/09/03 05:04:53;;;;;;;10.95;6.78;;;;;;;;;;2090324;28;20373;-64
2023/09/03 05:05:54;;;;;;;11.38;7.20;;;;;;;;;;2081823;28;20045;-64
2023/09/03 05:06:56;;;;;;;9.20;6.72;;;;;;;;;;2089693;28;20037;-64
2023/09/03 05:07:57;;;;;;;11.05;7.82;;;;;;;;;;2089921;28;20049;-63
2023/09/03 05:08:58;;;;;;;11.80;7.28;;;;;;;;;;2081220;28;20076;-64
2023/09/03 05:10:00;;;;;;;9.35;7.03;;;;;;;;;;2081794;28;20052;-64
2023/09/03 05:11:08;;;;;;;11.70;6.93;;;;;;;;;;2081974;28;20045;-64
2023/09/03 05:12:09;;;;;;;10.40;7.00;;;;;;;;;;2082613;28;20045;-64
2023/09/03 05:13:10;;;;;;;7.93;6.40;;;;;;;;;;2081486;28;20417;-64
2023/09/03 05:14:11;;;;;;;8.85;6.65;;;;;;;;;;2081881;28;20034;-64
2023/09/03 05:15:12;;;;;;;10.32;6.97;;;;;;;;;;2081794;28;20052;-64
2023/09/03 05:16:13;;;;;;;10.07;7.40;;;;;;;;;;2081566;28;20552;-64
2023/09/03 05:17:16;;;;;;;8.10;6.65;;;;;;;;;;2090041;28;20036;-64
2023/09/03 05:18:19;;;;;;;11.27;6.93;;;;;;;;;;2090039;28;20045;-64
2023/09/03 05:19:19;;;;;;;10.98;6.55;;;;;;;;;;2089678;28;20051;-64
2023/09/03 05:20:20;;;;;;;10.00;6.78;;;;;;;;;;2089497;28;20036;-64
2023/09/03 05:21:21;;;;;;;8.20;6.85;;;;;;;;;;2081029;28;20041;-64
2023/09/03 05:22:22;;;;;;;9.93;6.72;;;;;;;;;;2090005;28;20059;-64
2023/09/03 05:23:23;;;;;;;8.25;6.50;;;;;;;;;;2090859;28;20044;-64
2023/09/03 05:24:23;;;;;;;7.97;6.53;;;;;;;;;;2089690;28;20052;-64
2023/09/03 05:25:24;;;;;;;7.95;6.32;;;;;;;;;;2089778;28;20064;-64
2023/09/03 05:26:25;;;;;;;9.10;6.10;;;;;;;;;;2089110;28;20493;-64
2023/09/03 05:27:29;;;;;;;9.07;6.50;;;;;;;;;;2081439;28;20474;-64
2023/09/03 05:28:32;;;;;;;7.10;5.93;;;;;;;;;;2089758;28;20041;-64
2023/09/03 05:29:33;;;;;;;8.00;6.28;;;;;;;;;;2089934;28;20031;-64
2023/09/03 05:30:33;;;;;;;10.95;6.05;;;;;;;;;;2081783;28;20037;-64
2023/09/03 05:31:35;;;;;;;9.20;6.38;;;;;;;;;;2089966;28;20414;-64
2023/09/03 05:32:36;;;;;;;7.93;5.80;;;;;;;;;;2081758;28;20041;-64
2023/09/03 05:33:37;;;;;;;7.07;5.75;;;;;;;;;;2089500;28;20056;-64
2023/09/03 05:34:38;;;;;;;9.60;6.22;;;;;;;;;;2081650;28;20478;-64
2023/09/03 05:35:40;;;;;;;7.68;5.57;;;;;;;;;;2081718;28;20025;-65
2023/09/03 05:36:41;;;;;;;6.88;5.70;;;;;;;;;;2081793;28;20477;-65
2023/09/03 05:37:41;;;;;;;9.10;5.93;;;;;;;;;;2089914;28;20028;-64
2023/09/03 05:38:42;;;;;;;8.68;6.20;;;;;;;;;;2089995;28;20040;-64
2023/09/03 05:39:44;;;;;;;7.88;5.78;;;;;;;;;;2081745;28;20029;-65
2023/09/03 05:40:45;;;;;;;8.85;5.50;;;;;;;;;;2081749;28;20037;-64
2023/09/03 05:41:47;;;;;;;8.18;5.63;;;;;;;;;;2081664;28;20049;-64
2023/09/03 05:42:48;;;;;;;7.72;5.45;;;;;;;;;;2089779;28;20037;-64
2023/09/03 05:43:53;;;;;;;6.80;5.38;;;;;;;;;;2081197;28;20041;-64
2023/09/03 05:44:56;;;;;;;7.53;5.40;;;;;;;;;;2090184;28;20040;-64
2023/09/03 05:45:57;;;;;;;6.72;5.28;;;;;;;;;;2089810;28;20037;-64
2023/09/03 05:46:59;;;;;;;7.82;5.28;;;;;;;;;;2081571;28;20045;-64
2023/09/03 05:47:59;;;;;;;6.60;5.13;;;;;;;;;;2090042;28;20037;-64
2023/09/03 05:49:00;;;;;;;6.97;4.80;;;;;;;;;;2089739;28;20429;-64
2023/09/03 05:50:01;;;;;;;6.65;5.15;;;;;;;;;;2081791;28;20041;-64
2023/09/03 05:51:05;;;;;;;6.95;4.78;;;;;;;;;;2081596;28;20370;-64
2023/09/03 05:52:08;;;;;;;7.95;5.00;;;;;;;;;;2081219;28;20517;-64
2023/09/03 05:53:09;;;;;;;8.23;5.20;;;;;;;;;;2089448;28;20041;-64
2023/09/03 05:54:10;;;;;;;7.75;4.88;;;;;;;;;;2098175;28;20029;-63
2023/09/03 05:55:11;;;;;;;8.65;4.68;;;;;;;;;;2089358;28;20420;-63
2023/09/03 05:56:11;;;;;;;6.50;4.43;;;;;;;;;;2081423;28;20033;-65
2023/09/03 05:57:15;;;;;;;6.88;4.75;;;;;;;;;;2089341;28;20064;-63
2023/09/03 05:58:16;;;;;;;7.63;4.50;;;;;;;;;;2089884;28;20041;-65
2023/09/03 05:59:17;;;;;;;7.53;4.93;;;;;;;;;;2089968;28;20564;-65
2023/09/03 06:00:18;;;;;;;6.70;4.53;;;;;;;;;;2081826;28;20437;-64
2023/09/03 06:01:26;;;;;;;7.35;4.53;;;;;;;;;;2089615;28;20045;-64
2023/09/03 06:02:27;;;;;;;6.15;4.55;;;;;;;;;;2089487;28;20033;-65
2023/09/03 06:03:28;;;;;;;6.43;4.47;;;;;;;;;;2089821;28;20037;-66
2023/09/03 06:04:29;;;;;;;7.07;4.70;;;;;;;;;;2089737;28;20493;-65
2023/09/03 06:05:30;;;;;;;7.50;3.97;;;;;;;;;;2089717;28;20056;-66
2023/09/03 06:06:37;;;;;;;5.80;4.03;;;;;;;;;;2089613;28;20040;-66
2023/09/03 06:07:38;;;;;;;5.18;4.13;;;;;;;;;;2089868;28;20040;-66
2023/09/03 06:08:39;;;;;;;7.43;4.70;;;;;;;;;;2090789;28;20491;-66
2023/09/03 06:09:40;;;;;;;7.03;4.47;;;;;;;;;;2090267;28;20048;-63
2023/09/03 06:10:41;;;;;;;5.65;4.47;;;;;;;;;;2090277;28;20020;-65